Schedule Details


Flight Number: CTN491
Departure: Heathrow (EGLL) at 10:50
Arrival: Franjo Tudman (LDZA) at 14:05
Route: DET UL6 DVR L9 KONAN UL607 KOK UM150 PITES UZ380 MAH Y161 MUN UM867 VAROB DCT PIKIT DCT ARGOM

Weather Information
EGLL 172220Z AUTO 06006KT 9000 -RA BKN007 BKN012 OVC040 17/16 Q1014 TEMPO SCT007
LDZA 172230Z 00000KT CAVOK 19/15 Q1017 NOSIG
Schedule Frequency

Route Map